Airport View

Enter AWOS ICAO identifier for current METAR.

ex. KFNL

KDKK 040353Z AUTO 14006KT 9SM -RA BKN095 OVC110 21/17 A2995 RMK AO2 RAB47 SLP136 P0000 T02060172 $

4 Aug 2020 04:37

Frequency: 119.275

Phone: 716-366-7664

Other Area AWOS: KJHW - CWPC - CWPS - KBUF

TAF AMD KJHW 040301Z 0403/0424 15004KT 1SM -RA BR BKN003 FM040430 15004KT 3SM BR VCSH BKN007 FM041500 20005KT P6SM VCSH OVC035